createdAt,value
2018-07-14T00:03:28.751Z,4.20
2018-07-14T00:08:24.014Z,4.60
2018-07-14T00:13:18.564Z,4.43
2018-07-14T00:18:13.122Z,4.50
2018-07-14T00:23:08.276Z,4.40
2018-07-14T00:28:02.480Z,4.43
2018-07-14T00:32:56.823Z,4.30
2018-07-14T00:37:51.538Z,4.20
2018-07-14T00:42:46.467Z,4.50
2018-07-14T00:47:41.114Z,4.50
2018-07-14T00:52:36.203Z,4.87
2018-07-14T00:57:30.902Z,5.20
2018-07-14T01:02:25.622Z,4.67
2018-07-14T01:07:19.956Z,5.40
2018-07-14T01:12:14.313Z,5.10
2018-07-14T01:17:08.941Z,5.40
2018-07-14T01:22:03.466Z,5.30
2018-07-14T01:26:58.036Z,5.70
2018-07-14T01:31:52.577Z,5.87
2018-07-14T01:36:47.556Z,5.90
2018-07-14T01:41:42.465Z,5.87
2018-07-14T01:46:37.390Z,5.97
2018-07-14T01:51:31.869Z,6.10
2018-07-14T01:56:26.492Z,6.30
2018-07-14T02:01:21.327Z,5.47
2018-07-14T02:06:15.912Z,6.17
2018-07-14T02:11:10.559Z,6.50
2018-07-14T02:16:05.996Z,6.27
2018-07-14T02:21:00.471Z,6.30
2018-07-14T02:25:55.100Z,6.23
2018-07-14T02:30:49.601Z,6.27
2018-07-14T02:35:44.190Z,6.50
2018-07-14T02:40:38.664Z,6.30
2018-07-14T02:45:33.109Z,6.10
2018-07-14T02:50:27.634Z,6.37
2018-07-14T02:55:23.269Z,6.50
2018-07-14T03:00:18.506Z,7.10
2018-07-14T03:05:13.257Z,5.83
2018-07-14T03:10:07.912Z,6.17
2018-07-14T03:15:02.449Z,6.43
2018-07-14T03:19:57.193Z,7.70
2018-07-14T03:24:51.658Z,8.03
2018-07-14T03:29:46.196Z,7.40
2018-07-14T03:34:40.989Z,7.47
2018-07-14T03:39:35.575Z,7.57
2018-07-14T03:44:30.198Z,7.17
2018-07-14T03:49:24.804Z,7.30
2018-07-14T03:54:19.384Z,6.90
2018-07-14T03:59:14.064Z,7.70
2018-07-14T04:04:08.628Z,8.07
2018-07-14T04:09:02.941Z,7.80
2018-07-14T04:13:57.174Z,7.97
2018-07-14T04:18:51.721Z,8.07
2018-07-14T04:23:46.268Z,8.30
2018-07-14T04:28:40.810Z,7.97
2018-07-14T04:33:35.460Z,7.30
2018-07-14T04:38:29.805Z,7.67
2018-07-14T04:43:24.413Z,7.70
2018-07-14T04:48:19.084Z,8.13
2018-07-14T04:53:13.611Z,8.07
2018-07-14T04:58:08.297Z,8.30
2018-07-14T05:03:02.662Z,7.83
2018-07-14T05:07:57.224Z,8.40
2018-07-14T05:12:51.772Z,7.50
2018-07-14T05:17:46.329Z,7.17
2018-07-14T05:22:40.558Z,8.03
2018-07-14T05:27:35.203Z,7.80
2018-07-14T05:32:29.775Z,6.90
2018-07-14T05:37:24.495Z,6.33
2018-07-14T05:42:18.964Z,6.10
2018-07-14T05:47:13.470Z,6.70
2018-07-14T05:52:08.562Z,5.63
2018-07-14T05:57:04.156Z,6.40
2018-07-14T06:01:59.173Z,6.43
2018-07-14T06:06:54.280Z,5.63
2018-07-14T06:11:48.880Z,7.00
2018-07-14T06:16:44.000Z,6.20
2018-07-14T06:21:40.030Z,6.17
2018-07-14T06:26:34.546Z,6.77
2018-07-14T06:31:31.438Z,6.20
2018-07-14T06:36:26.611Z,6.20
2018-07-14T06:41:24.040Z,5.33
2018-07-14T06:46:19.404Z,6.20
2018-07-14T06:51:14.769Z,6.43
2018-07-14T06:56:09.711Z,6.40
2018-07-14T07:01:05.053Z,5.53
2018-07-14T07:06:00.671Z,5.83
2018-07-14T07:10:57.777Z,6.53
2018-07-14T07:15:53.008Z,6.13
2018-07-14T07:20:48.465Z,5.90
2018-07-14T07:25:43.414Z,6.53
2018-07-14T07:30:39.095Z,5.73
2018-07-14T07:35:34.849Z,7.10
2018-07-14T07:40:30.071Z,7.90
2018-07-14T07:45:26.129Z,6.33
2018-07-14T07:50:20.920Z,6.77
2018-07-14T07:55:16.458Z,6.43
2018-07-14T08:00:11.617Z,7.17
2018-07-14T08:05:06.867Z,6.60
2018-07-14T08:10:02.449Z,7.23
2018-07-14T08:14:58.097Z,6.80
2018-07-14T08:19:54.277Z,7.80
2018-07-14T08:24:49.808Z,6.87
2018-07-14T08:29:44.611Z,8.17
2018-07-14T08:34:40.103Z,7.50
2018-07-14T08:39:34.799Z,6.47
2018-07-14T08:44:30.049Z,7.03
2018-07-14T08:49:25.663Z,5.77
2018-07-14T08:54:21.285Z,5.50
2018-07-14T08:59:16.602Z,5.50
2018-07-14T09:04:11.724Z,5.70
2018-07-14T09:09:08.722Z,5.63
2018-07-14T09:14:03.500Z,5.17
2018-07-14T09:18:58.556Z,4.40
2018-07-14T09:23:53.992Z,5.03
2018-07-14T09:28:49.296Z,5.00
2018-07-14T09:33:45.437Z,5.30
2018-07-14T09:38:42.974Z,5.00
2018-07-14T09:43:38.509Z,5.80
2018-07-14T09:48:33.931Z,4.00
2018-07-14T09:53:29.663Z,5.70
2018-07-14T09:58:24.985Z,5.27
2018-07-14T10:03:21.451Z,6.17
2018-07-14T10:08:17.092Z,6.40
2018-07-14T10:13:12.107Z,6.70
2018-07-14T10:18:08.015Z,6.47
2018-07-14T10:23:04.484Z,5.77
2018-07-14T10:27:59.525Z,6.30
2018-07-14T10:32:55.092Z,7.50
2018-07-14T10:37:50.290Z,7.13
2018-07-14T10:42:45.160Z,5.50
2018-07-14T10:47:40.161Z,7.13
2018-07-14T10:52:35.492Z,7.43
2018-07-14T10:57:30.618Z,5.40
2018-07-14T11:02:30.081Z,5.57
2018-07-14T11:07:28.184Z,6.13
2018-07-14T11:12:23.068Z,5.80
2018-07-14T11:17:17.970Z,5.63
2018-07-14T11:22:12.824Z,6.83
2018-07-14T11:27:07.649Z,6.87
2018-07-14T11:32:02.738Z,6.90
2018-07-14T11:36:57.898Z,6.87
2018-07-14T11:41:52.876Z,7.10
2018-07-14T11:46:47.660Z,6.07
2018-07-14T11:51:42.741Z,7.20
2018-07-14T11:56:37.476Z,7.60
2018-07-14T12:01:32.281Z,7.03
2018-07-14T12:06:28.122Z,7.80
2018-07-14T12:11:23.156Z,4.63
2018-07-14T12:16:17.900Z,7.00
2018-07-14T12:21:12.693Z,7.30
2018-07-14T12:26:07.202Z,7.20
2018-07-14T12:31:01.926Z,6.83
2018-07-14T12:35:56.843Z,5.47
2018-07-14T12:40:51.883Z,6.20
2018-07-14T12:45:47.473Z,5.70
2018-07-14T12:50:43.236Z,6.07
2018-07-14T12:55:38.274Z,6.50
2018-07-14T13:00:34.025Z,6.60
2018-07-14T13:05:30.726Z,6.00
2018-07-14T13:10:26.402Z,5.50
2018-07-14T13:15:21.856Z,5.97
2018-07-14T13:20:17.141Z,6.73
2018-07-14T13:25:12.189Z,5.73
2018-07-14T13:30:07.213Z,6.67
2018-07-14T13:35:02.726Z,5.77
2018-07-14T13:39:57.912Z,5.70
2018-07-14T13:44:55.052Z,5.70
2018-07-14T13:49:50.281Z,4.97
2018-07-14T13:54:45.229Z,5.40
2018-07-14T13:59:40.142Z,4.73
2018-07-14T14:04:36.250Z,4.77
2018-07-14T14:09:31.651Z,4.70
2018-07-14T14:14:27.362Z,4.53
2018-07-14T14:19:22.438Z,4.50
2018-07-14T14:24:17.881Z,3.90
2018-07-14T14:29:12.792Z,3.50
2018-07-14T14:34:07.780Z,3.73
2018-07-14T14:39:02.629Z,3.60
2018-07-14T14:43:57.346Z,3.67
2018-07-14T14:48:52.164Z,3.40
2018-07-14T14:53:46.952Z,3.17
2018-07-14T14:58:41.719Z,3.00
2018-07-14T15:03:36.655Z,3.20
2018-07-14T15:08:32.036Z,2.77
2018-07-14T15:13:26.829Z,3.10
2018-07-14T15:18:21.472Z,3.37
2018-07-14T15:23:16.396Z,2.63
2018-07-14T15:28:11.168Z,2.80
2018-07-14T15:33:06.735Z,2.60
2018-07-14T15:38:02.023Z,2.50
2018-07-14T15:42:58.731Z,2.47
2018-07-14T15:47:54.730Z,2.53
2018-07-14T15:52:50.149Z,2.43
2018-07-14T15:57:44.666Z,2.57
2018-07-14T16:02:40.189Z,2.10
2018-07-14T16:07:37.982Z,2.00
2018-07-14T16:12:33.683Z,2.33
2018-07-14T16:17:28.650Z,2.40
2018-07-14T16:22:23.723Z,2.17
2018-07-14T16:27:19.246Z,2.40
2018-07-14T16:32:15.225Z,2.30
2018-07-14T16:37:10.081Z,2.83
2018-07-14T16:42:04.845Z,2.83
2018-07-14T16:46:59.951Z,2.70
2018-07-14T16:51:57.848Z,2.25
2018-07-14T16:56:52.793Z,2.23
2018-07-14T17:01:47.601Z,1.87
2018-07-14T17:06:42.400Z,2.33
2018-07-14T17:11:37.425Z,2.70
2018-07-14T17:16:32.380Z,2.33
2018-07-14T17:21:27.064Z,2.00
2018-07-14T17:26:22.167Z,2.17
2018-07-14T17:31:17.443Z,2.47
2018-07-14T17:36:12.089Z,2.30
2018-07-14T17:41:07.715Z,2.37
2018-07-14T17:46:02.542Z,2.23
2018-07-14T17:50:57.034Z,2.40
2018-07-14T17:55:51.638Z,2.23
2018-07-14T18:00:46.146Z,2.00
2018-07-14T18:05:40.702Z,2.20
2018-07-14T18:10:35.006Z,2.30
2018-07-14T18:15:29.248Z,2.20
2018-07-14T18:20:23.771Z,2.00
2018-07-14T18:25:18.432Z,2.50
2018-07-14T18:30:13.463Z,2.30
2018-07-14T18:35:07.936Z,2.43
2018-07-14T18:40:12.148Z,2.53
2018-07-14T18:45:06.909Z,2.60
2018-07-14T18:50:11.136Z,2.40
2018-07-14T18:55:20.670Z,2.40
2018-07-14T19:00:14.898Z,2.63
2018-07-14T19:05:09.410Z,3.10
2018-07-14T19:10:03.913Z,3.10
2018-07-14T19:14:58.764Z,3.90
2018-07-14T19:19:53.416Z,3.03
2018-07-14T19:24:47.703Z,3.60
2018-07-14T19:29:42.170Z,3.80
2018-07-14T19:34:36.667Z,3.93
2018-07-14T19:39:31.243Z,3.47
2018-07-14T19:44:25.790Z,4.10
2018-07-14T19:49:20.331Z,3.20
2018-07-14T19:54:15.123Z,3.20
2018-07-14T19:59:09.606Z,3.53
2018-07-14T20:04:04.078Z,2.90
2018-07-14T20:08:58.579Z,3.73
2018-07-14T20:13:53.238Z,3.93
2018-07-14T20:18:47.898Z,3.30
2018-07-14T20:23:53.735Z,3.53
2018-07-14T20:28:58.361Z,3.55
2018-07-14T20:33:54.259Z,3.33
2018-07-14T20:38:49.408Z,3.70
2018-07-14T20:43:44.901Z,4.10
2018-07-14T20:48:39.605Z,4.00
2018-07-14T20:53:34.653Z,4.10
2018-07-14T20:58:31.164Z,3.60
2018-07-14T21:03:27.991Z,3.37
2018-07-14T21:08:23.575Z,3.57
2018-07-14T21:13:18.197Z,4.17
2018-07-14T21:18:12.938Z,3.60
2018-07-14T21:23:08.363Z,3.60
2018-07-14T21:28:02.818Z,3.77
2018-07-14T21:32:57.824Z,4.10
2018-07-14T21:37:53.403Z,3.80
2018-07-14T21:42:48.768Z,3.80
2018-07-14T21:47:44.067Z,4.00
2018-07-14T21:52:39.301Z,3.73
2018-07-14T21:57:35.039Z,3.57
2018-07-14T22:02:29.635Z,2.90
2018-07-14T22:07:24.632Z,3.20
2018-07-14T22:12:19.658Z,3.63
2018-07-14T22:17:15.002Z,3.20
2018-07-14T22:22:10.317Z,3.30
2018-07-14T22:27:05.643Z,3.10
2018-07-14T22:32:00.249Z,3.50
2018-07-14T22:36:55.387Z,3.70
2018-07-14T22:41:50.050Z,3.13
2018-07-14T22:46:45.565Z,3.27
2018-07-14T22:51:41.408Z,3.70
2018-07-14T22:56:36.707Z,3.50
2018-07-14T23:01:32.199Z,3.37
2018-07-14T23:06:26.773Z,3.40
2018-07-14T23:11:21.792Z,4.23
2018-07-14T23:16:16.893Z,3.90
2018-07-14T23:21:11.449Z,4.03
2018-07-14T23:26:06.140Z,4.00
2018-07-14T23:31:01.297Z,3.80
2018-07-14T23:35:58.090Z,4.10
2018-07-14T23:40:52.960Z,4.20
2018-07-14T23:45:48.432Z,3.67
2018-07-14T23:50:43.170Z,3.90
2018-07-14T23:55:40.177Z,3.80
